Time;durP1;ratioP1;P1;durP2;ratioP2;P2;SDS_P1;SDS_P2;PMS_P1;PMS_P2;Temp;Humidity;BMP_temperature;BMP_pressure;BME280_temperature;BME280_humidity;BME280_pressure;Samples;Min_cycle;Max_cycle;Signal;HPM_P1;HPM_P2
2022/07/19 00:01:37;;;;;;;3.70;2.15;;;19.40;81.90;;;;;;6154182;23;20184;-69
2022/07/19 00:04:03;;;;;;;4.82;1.92;;;19.40;82.30;;;;;;6154452;23;20158;-70
2022/07/19 00:06:29;;;;;;;3.38;2.00;;;19.40;81.80;;;;;;6154077;23;20162;-70
2022/07/19 00:08:54;;;;;;;2.30;2.05;;;19.40;82.00;;;;;;6152827;23;20158;-70
2022/07/19 00:11:20;;;;;;;4.18;2.05;;;19.40;82.30;;;;;;6154281;23;20237;-70
2022/07/19 00:13:46;;;;;;;3.80;2.03;;;19.40;82.10;;;;;;6153389;23;20614;-70
2022/07/19 00:16:11;;;;;;;4.13;1.88;;;19.40;82.90;;;;;;6153679;23;20165;-70
2022/07/19 00:18:37;;;;;;;3.60;2.05;;;19.40;82.90;;;;;;6152308;23;20153;-70
2022/07/19 00:21:03;;;;;;;5.45;2.38;;;19.30;82.80;;;;;;6154309;23;20176;-70
2022/07/19 00:23:28;;;;;;;2.33;2.00;;;19.30;83.60;;;;;;6154218;23;20157;-69
2022/07/19 00:25:54;;;;;;;7.47;2.35;;;19.30;83.20;;;;;;6154091;23;20571;-70
2022/07/19 00:28:20;;;;;;;2.55;2.10;;;19.30;83.70;;;;;;6153823;23;20646;-69
2022/07/19 00:30:45;;;;;;;2.33;2.10;;;19.20;84.40;;;;;;6153085;23;20595;-69
2022/07/19 00:33:11;;;;;;;1.80;1.70;;;19.10;84.80;;;;;;6152345;23;20177;-69
2022/07/19 00:35:38;;;;;;;4.70;1.95;;;19.10;85.60;;;;;;6154129;23;20149;-69
2022/07/19 00:38:09;;;;;;;2.30;1.83;;;19.10;85.70;;;;;;6154094;23;20153;-69
2022/07/19 00:40:36;;;;;;;6.35;2.40;;;19.10;86.40;;;;;;6153150;23;20157;-70
2022/07/19 00:43:02;;;;;;;3.20;1.67;;;19.10;86.80;;;;;;6154224;23;20583;-70
2022/07/19 00:45:27;;;;;;;3.05;2.40;;;19.10;87.40;;;;;;6154018;23;20153;-70
2022/07/19 00:47:53;;;;;;;3.75;2.38;;;19.00;87.70;;;;;;6153781;23;20213;-70
2022/07/19 00:50:20;;;;;;;6.20;2.00;;;19.00;88.00;;;;;;6153568;23;20495;-70
2022/07/19 00:52:49;;;;;;;6.18;2.15;;;19.00;88.10;;;;;;6153827;23;20177;-70
2022/07/19 00:55:17;;;;;;;3.05;2.15;;;18.90;88.70;;;;;;6153952;23;20669;-69
2022/07/19 00:57:43;;;;;;;4.00;2.03;;;18.90;89.40;;;;;;6153278;23;20629;-68
2022/07/19 01:00:12;;;;;;;2.38;2.17;;;18.90;89.60;;;;;;6153219;23;20182;-71
2022/07/19 01:02:38;;;;;;;6.18;2.47;;;18.90;90.00;;;;;;6154540;23;20173;-68
2022/07/19 01:05:06;;;;;;;2.28;2.05;;;18.90;90.00;;;;;;6154588;23;20153;-69
2022/07/19 01:07:34;;;;;;;3.50;2.20;;;18.90;90.50;;;;;;6154291;23;20157;-70
2022/07/19 01:10:04;;;;;;;5.63;2.33;;;18.80;90.70;;;;;;6154380;23;20629;-70
2022/07/19 01:12:30;;;;;;;7.50;2.50;;;18.80;90.90;;;;;;6127109;23;20193;-70
2022/07/19 01:14:56;;;;;;;4.85;2.33;;;18.60;90.90;;;;;;6154581;23;20149;-70
2022/07/19 01:17:22;;;;;;;4.55;2.60;;;18.50;91.20;;;;;;6154505;23;20155;-69
2022/07/19 01:19:48;;;;;;;3.15;2.40;;;18.50;91.60;;;;;;6154364;23;20185;-69
2022/07/19 01:22:13;;;;;;;5.63;2.10;;;18.40;92.00;;;;;;6154021;23;20177;-68
2022/07/19 01:24:39;;;;;;;4.72;2.00;;;18.30;92.50;;;;;;6154714;23;20641;-68
2022/07/19 01:27:05;;;;;;;1.95;1.73;;;18.30;93.00;;;;;;6154661;23;20204;-68
2022/07/19 01:29:32;;;;;;;2.85;2.20;;;18.20;93.40;;;;;;6153079;23;20463;-69
2022/07/19 01:31:57;;;;;;;3.65;2.15;;;18.20;93.80;;;;;;6154431;23;20179;-70
2022/07/19 01:34:23;;;;;;;6.97;2.75;;;18.20;94.00;;;;;;6154519;23;20224;-71
2022/07/19 01:36:48;;;;;;;2.83;2.40;;;18.10;94.40;;;;;;6154652;23;20208;-70
2022/07/19 01:39:14;;;;;;;3.08;2.70;;;18.10;94.80;;;;;;6153908;23;20153;-70
2022/07/19 01:41:40;;;;;;;3.75;2.28;;;18.00;95.20;;;;;;6154504;23;20253;-69
2022/07/19 01:44:05;;;;;;;3.17;2.00;;;18.00;95.90;;;;;;6154500;23;20529;-71
2022/07/19 01:46:31;;;;;;;2.25;2.08;;;18.00;96.10;;;;;;6154045;23;20164;-70
2022/07/19 01:48:56;;;;;;;4.90;2.38;;;17.90;96.50;;;;;;6154283;23;20599;-70
2022/07/19 01:51:22;;;;;;;2.60;2.38;;;17.80;96.90;;;;;;6154305;23;20200;-69
2022/07/19 01:53:48;;;;;;;4.85;2.30;;;17.80;97.10;;;;;;6154433;23;20181;-70
2022/07/19 01:56:13;;;;;;;6.20;2.42;;;17.80;97.60;;;;;;6153915;23;20146;-69
2022/07/19 01:58:39;;;;;;;2.42;2.17;;;17.70;97.90;;;;;;6153845;23;20224;-69
2022/07/19 02:01:04;;;;;;;5.07;2.55;;;17.70;98.20;;;;;;6154225;23;20246;-69
2022/07/19 02:03:30;;;;;;;3.00;2.30;;;17.60;98.60;;;;;;6153741;23;20160;-68
2022/07/19 02:05:56;;;;;;;2.38;2.05;;;17.60;99.00;;;;;;6153908;23;20153;-68
2022/07/19 02:08:22;;;;;;;2.72;2.47;;;17.60;99.50;;;;;;6154125;23;20200;-68
2022/07/19 02:10:47;;;;;;;3.20;2.42;;;17.50;99.80;;;;;;6153821;23;20150;-69
2022/07/19 02:13:13;;;;;;;5.82;2.95;;;17.50;99.90;;;;;;6154340;23;20227;-69
2022/07/19 02:15:38;;;;;;;4.25;2.60;;;17.50;99.90;;;;;;6153913;23;20146;-70
2022/07/19 02:18:04;;;;;;;3.15;2.78;;;17.50;99.90;;;;;;6154345;23;20292;-70
2022/07/19 02:20:30;;;;;;;4.40;2.20;;;17.50;99.90;;;;;;6153486;23;20149;-68
2022/07/19 02:22:56;;;;;;;4.80;2.75;;;17.40;99.90;;;;;;6153845;23;20173;-69
2022/07/19 02:25:22;;;;;;;2.63;2.40;;;17.30;99.90;;;;;;6154262;23;20150;-70
2022/07/19 02:27:48;;;;;;;6.28;2.83;;;17.30;99.90;;;;;;6155101;23;20208;-70
2022/07/19 02:30:13;;;;;;;6.03;2.80;;;17.30;99.90;;;;;;6154627;23;20149;-70
2022/07/19 02:32:40;;;;;;;2.95;2.63;;;17.20;99.90;;;;;;6154518;23;20184;-69
2022/07/19 02:35:07;;;;;;;4.13;2.25;;;17.20;99.90;;;;;;6154403;23;20227;-69
2022/07/19 02:37:33;;;;;;;6.70;2.72;;;17.10;99.90;;;;;;6154575;23;20154;-69
2022/07/19 02:39:58;;;;;;;7.40;2.63;;;17.10;99.90;;;;;;6152470;23;20157;-69
2022/07/19 02:42:24;;;;;;;5.20;2.10;;;17.10;99.90;;;;;;6153772;23;20693;-68
2022/07/19 02:44:49;;;;;;;4.05;2.83;;;17.00;99.90;;;;;;6154427;23;20162;-70
2022/07/19 02:47:15;;;;;;;5.28;2.60;;;17.10;99.90;;;;;;6154536;23;20607;-70
2022/07/19 02:49:41;;;;;;;3.35;3.00;;;17.10;99.90;;;;;;6153705;23;20498;-69
2022/07/19 02:52:06;;;;;;;4.38;3.05;;;17.20;99.90;;;;;;6153647;23;20516;-69
2022/07/19 02:54:32;;;;;;;5.05;2.60;;;17.20;99.90;;;;;;6153962;23;20309;-69
2022/07/19 02:56:57;;;;;;;2.60;2.35;;;17.10;99.90;;;;;;6153935;23;20155;-69
2022/07/19 02:59:23;;;;;;;4.07;2.40;;;17.10;99.90;;;;;;6152594;23;20157;-70
2022/07/19 03:01:49;;;;;;;5.60;2.75;;;17.10;99.90;;;;;;6153861;23;20622;-70
2022/07/19 03:04:15;;;;;;;10.75;3.25;;;17.00;99.90;;;;;;6155059;23;20172;-69
2022/07/19 03:06:40;;;;;;;5.80;2.90;;;17.00;99.90;;;;;;6155308;23;20240;-68
2022/07/19 03:09:06;;;;;;;5.50;2.58;;;17.00;99.90;;;;;;6153380;23;20176;-69
2022/07/19 03:11:31;;;;;;;4.43;2.80;;;17.00;99.90;;;;;;6153451;23;20179;-69
2022/07/19 03:13:57;;;;;;;3.60;2.70;;;16.90;99.90;;;;;;6153662;23;20181;-71
2022/07/19 03:16:22;;;;;;;3.53;2.97;;;16.90;99.90;;;;;;6153318;23;20534;-69
2022/07/19 03:18:48;;;;;;;5.45;3.20;;;16.90;99.90;;;;;;6153731;23;20150;-69
2022/07/19 03:21:14;;;;;;;5.68;2.90;;;16.80;99.90;;;;;;6153902;23;20542;-69
2022/07/19 03:23:40;;;;;;;3.03;2.72;;;16.70;99.90;;;;;;6154146;23;20161;-69
2022/07/19 03:26:06;;;;;;;4.13;3.08;;;16.70;99.90;;;;;;6153678;23;20203;-69
2022/07/19 03:28:33;;;;;;;2.78;2.58;;;16.70;99.90;;;;;;6153557;23;20589;-69
2022/07/19 03:30:59;;;;;;;4.13;3.03;;;16.60;99.90;;;;;;6153952;23;20208;-69
2022/07/19 03:33:24;;;;;;;4.63;2.50;;;16.60;99.90;;;;;;6153890;23;20278;-69
2022/07/19 03:35:50;;;;;;;3.35;2.80;;;16.50;99.90;;;;;;6153434;23;20161;-69
2022/07/19 03:38:16;;;;;;;4.57;2.80;;;16.60;99.90;;;;;;6153611;23;20587;-69
2022/07/19 03:40:43;;;;;;;6.00;3.13;;;16.60;99.90;;;;;;6153400;23;20514;-70
2022/07/19 03:43:09;;;;;;;3.30;2.80;;;16.50;99.90;;;;;;6153846;23;20214;-70
2022/07/19 03:45:35;;;;;;;5.47;2.92;;;16.50;99.90;;;;;;6154879;23;20539;-71
2022/07/19 03:48:00;;;;;;;8.93;3.25;;;16.50;99.90;;;;;;6155010;23;20165;-71
2022/07/19 03:50:27;;;;;;;6.80;2.50;;;16.50;99.90;;;;;;6154739;23;20154;-71
2022/07/19 03:52:53;;;;;;;4.95;3.20;;;16.50;99.90;;;;;;6154502;23;20188;-70
2022/07/19 03:55:18;;;;;;;3.10;2.80;;;16.50;99.90;;;;;;6154527;23;20150;-69
2022/07/19 03:57:44;;;;;;;4.60;3.22;;;16.50;99.90;;;;;;6154552;23;20510;-71
2022/07/19 04:00:10;;;;;;;3.20;2.85;;;16.50;99.90;;;;;;6152056;23;20157;-69
2022/07/19 04:02:35;;;;;;;4.05;2.80;;;16.50;99.90;;;;;;6154869;23;20173;-71
2022/07/19 04:05:01;;;;;;;5.78;3.30;;;16.50;99.90;;;;;;6153952;23;20669;-70
2022/07/19 04:07:26;;;;;;;4.18;3.35;;;16.50;99.90;;;;;;6153789;23;20205;-69
2022/07/19 04:09:52;;;;;;;7.88;3.22;;;16.60;99.90;;;;;;6153360;23;20160;-70
2022/07/19 04:12:18;;;;;;;3.03;2.72;;;16.60;99.90;;;;;;6152996;23;20181;-70
2022/07/19 04:14:43;;;;;;;5.22;2.92;;;16.60;99.90;;;;;;6153391;23;20152;-69
2022/07/19 04:17:09;;;;;;;4.35;2.95;;;16.70;99.90;;;;;;6153561;23;20146;-69
2022/07/19 04:19:35;;;;;;;3.38;3.08;;;16.70;99.90;;;;;;6153060;23;20255;-69
2022/07/19 04:22:00;;;;;;;3.78;2.78;;;16.80;99.90;;;;;;6152934;23;20179;-67
2022/07/19 04:24:26;;;;;;;7.57;3.08;;;16.80;99.90;;;;;;6152963;23;20152;-68
2022/07/19 04:26:51;;;;;;;2.80;2.60;;;16.90;99.90;;;;;;6153636;23;20530;-68
2022/07/19 04:29:17;;;;;;;3.33;2.88;;;17.00;99.90;;;;;;6152983;23;20489;-69
2022/07/19 04:31:43;;;;;;;4.97;2.72;;;17.00;99.90;;;;;;6153309;23;20189;-70
2022/07/19 04:34:08;;;;;;;7.95;3.35;;;17.10;99.90;;;;;;6152818;23;20177;-70
2022/07/19 04:36:34;;;;;;;5.35;3.22;;;17.10;99.90;;;;;;6153459;23;20157;-70
2022/07/19 04:39:00;;;;;;;3.13;2.83;;;17.20;99.90;;;;;;6153139;23;20622;-70
2022/07/19 04:41:26;;;;;;;7.35;3.15;;;17.30;99.90;;;;;;6153391;23;20166;-69
2022/07/19 04:43:51;;;;;;;4.40;3.20;;;17.30;99.90;;;;;;6155245;23;20210;-70
2022/07/19 04:46:17;;;;;;;6.28;3.65;;;17.40;99.90;;;;;;6154906;23;20158;-69
2022/07/19 04:48:42;;;;;;;4.63;3.40;;;17.50;99.90;;;;;;6154359;23;20233;-70
2022/07/19 04:51:08;;;;;;;2.95;2.72;;;17.50;99.90;;;;;;6154949;23;20184;-69
2022/07/19 04:53:34;;;;;;;6.85;3.10;;;17.60;99.90;;;;;;6155070;23;20191;-69
2022/07/19 04:55:59;;;;;;;5.20;3.03;;;17.60;99.90;;;;;;6155080;23;20173;-69
2022/07/19 04:58:25;;;;;;;4.65;3.03;;;17.70;99.90;;;;;;6154353;23;20161;-69
2022/07/19 05:00:50;;;;;;;2.90;2.65;;;17.70;99.90;;;;;;6154511;23;20599;-69
2022/07/19 05:03:16;;;;;;;3.85;3.50;;;17.80;99.90;;;;;;6154080;23;20158;-69
2022/07/19 05:05:42;;;;;;;5.43;2.90;;;17.90;99.90;;;;;;6152011;23;20591;-70
2022/07/19 05:08:07;;;;;;;4.60;3.03;;;18.00;99.90;;;;;;6154283;23;20137;-70
2022/07/19 05:10:33;;;;;;;5.03;3.15;;;18.10;99.90;;;;;;6153418;23;20153;-70
2022/07/19 05:12:59;;;;;;;3.60;3.20;;;18.20;99.90;;;;;;6153737;23;20491;-70
2022/07/19 05:15:24;;;;;;;3.05;2.80;;;18.20;99.90;;;;;;6153407;23;20164;-70
2022/07/19 05:17:50;;;;;;;6.43;2.90;;;18.40;99.90;;;;;;6153324;23;20200;-71
2022/07/19 05:20:16;;;;;;;6.80;3.15;;;18.40;99.90;;;;;;6154768;23;20154;-71
2022/07/19 05:22:43;;;;;;;4.13;3.08;;;18.50;99.90;;;;;;6154621;23;20170;-69
2022/07/19 05:25:09;;;;;;;5.80;2.80;;;18.50;99.90;;;;;;6154432;23;20525;-70
2022/07/19 05:27:35;;;;;;;4.68;3.13;;;18.60;99.90;;;;;;6155167;23;20157;-71
2022/07/19 05:30:02;;;;;;;4.93;3.72;;;18.70;99.90;;;;;;6153231;23;20154;-72
2022/07/19 05:32:27;;;;;;;5.78;3.10;;;18.80;99.90;;;;;;6153560;23;20229;-71
2022/07/19 05:34:53;;;;;;;5.88;3.42;;;18.80;99.90;;;;;;6153674;23;20154;-71
2022/07/19 05:37:18;;;;;;;5.13;3.13;;;18.90;99.90;;;;;;6153989;23;20177;-70
2022/07/19 05:39:44;;;;;;;3.85;2.97;;;19.00;99.90;;;;;;6154632;23;20322;-70
2022/07/19 05:42:09;;;;;;;5.00;2.90;;;19.00;99.90;;;;;;6153154;23;20510;-71
2022/07/19 05:44:35;;;;;;;10.00;3.85;;;19.10;99.90;;;;;;6151914;23;20152;-69
2022/07/19 05:47:01;;;;;;;5.40;3.35;;;19.20;99.90;;;;;;6152735;23;20216;-69
2022/07/19 05:49:27;;;;;;;6.18;3.75;;;19.30;99.90;;;;;;6154102;23;20185;-69
2022/07/19 05:51:53;;;;;;;3.70;3.35;;;19.40;99.90;;;;;;6153682;23;20169;-69
2022/07/19 05:54:18;;;;;;;7.05;3.65;;;19.50;99.90;;;;;;6154208;23;20494;-70
2022/07/19 05:56:44;;;;;;;7.32;3.50;;;19.60;99.90;;;;;;6154359;23;20153;-69
2022/07/19 05:59:10;;;;;;;3.45;3.25;;;19.70;99.90;;;;;;6152678;23;20169;-71
2022/07/19 06:01:35;;;;;;;4.88;3.33;;;19.80;99.90;;;;;;6152561;23;20469;-71
2022/07/19 06:04:01;;;;;;;10.18;3.63;;;19.90;99.80;;;;;;6154378;23;20181;-71
2022/07/19 06:06:30;;;;;;;7.10;3.60;;;20.00;98.60;;;;;;6153860;23;20156;-71
2022/07/19 06:08:56;;;;;;;10.98;3.22;;;20.10;97.80;;;;;;6153536;23;20258;-72
2022/07/19 06:11:22;;;;;;;10.38;3.50;;;20.20;97.00;;;;;;6154017;23;20227;-72
2022/07/19 06:13:49;;;;;;;7.97;3.10;;;20.30;96.60;;;;;;6154054;23;20201;-71
2022/07/19 06:16:15;;;;;;;6.90;3.47;;;20.40;96.60;;;;;;6153604;23;20145;-72
2022/07/19 06:18:41;;;;;;;8.80;3.35;;;20.50;97.10;;;;;;6127369;23;20248;-72
2022/07/19 06:21:13;;;;;;;4.97;2.85;;;20.60;96.50;;;;;;6153771;23;20169;-71
2022/07/19 06:23:40;;;;;;;4.07;2.92;;;20.70;96.10;;;;;;6154389;23;20142;-71
2022/07/19 06:26:07;;;;;;;7.65;3.13;;;20.90;95.90;;;;;;6154764;23;20163;-71
2022/07/19 06:28:33;;;;;;;8.38;2.95;;;21.00;95.50;;;;;;6153233;23;20160;-71
2022/07/19 06:30:58;;;;;;;6.47;2.65;;;21.20;94.80;;;;;;6153053;23;20177;-71
2022/07/19 06:33:24;;;;;;;10.30;3.15;;;21.30;94.90;;;;;;6154029;23;20309;-71
2022/07/19 06:35:50;;;;;;;8.00;3.33;;;21.40;93.80;;;;;;6154213;23;20157;-71
2022/07/19 06:38:16;;;;;;;8.32;3.38;;;21.50;93.90;;;;;;6153830;23;20203;-71
2022/07/19 06:40:42;;;;;;;12.70;3.28;;;21.70;93.70;;;;;;6153415;23;20224;-71
2022/07/19 06:43:08;;;;;;;11.27;3.58;;;21.80;93.20;;;;;;6154176;23;20149;-71
2022/07/19 06:45:33;;;;;;;7.95;3.00;;;21.90;93.30;;;;;;6154229;23;20204;-72
2022/07/19 06:47:59;;;;;;;5.78;3.45;;;22.00;92.60;;;;;;6153843;23;20183;-71
2022/07/19 06:50:25;;;;;;;6.85;2.95;;;22.10;92.20;;;;;;6153522;23;20236;-71
2022/07/19 06:52:50;;;;;;;5.47;2.70;;;22.30;92.30;;;;;;6154744;23;20626;-70
2022/07/19 06:55:16;;;;;;;4.60;2.60;;;22.40;91.40;;;;;;6153910;23;20150;-69
2022/07/19 06:57:42;;;;;;;4.22;2.15;;;22.50;90.00;;;;;;6153071;23;20175;-69
2022/07/19 07:00:09;;;;;;;7.30;2.30;;;22.60;89.80;;;;;;6151850;23;20743;-69
2022/07/19 07:02:36;;;;;;;4.47;2.55;;;22.70;88.40;;;;;;6153423;23;20239;-71
2022/07/19 07:05:03;;;;;;;2.70;2.47;;;22.80;88.20;;;;;;6153078;23;20146;-70
2022/07/19 07:07:28;;;;;;;3.75;2.00;;;22.90;86.60;;;;;;6153543;23;20174;-71
2022/07/19 07:09:54;;;;;;;5.22;2.53;;;23.00;85.10;;;;;;6153376;23;20208;-68
2022/07/19 07:12:19;;;;;;;3.25;2.15;;;23.20;85.90;;;;;;6153689;23;20185;-67
2022/07/19 07:14:45;;;;;;;7.97;2.25;;;23.30;85.10;;;;;;6153245;23;20184;-67
2022/07/19 07:17:11;;;;;;;3.58;2.17;;;23.50;83.90;;;;;;6153204;23;20200;-67
2022/07/19 07:19:36;;;;;;;5.78;2.20;;;23.60;82.80;;;;;;6152656;23;20224;-67
2022/07/19 07:22:02;;;;;;;2.20;2.00;;;23.70;82.20;;;;;;6153050;23;20173;-70
2022/07/19 07:24:28;;;;;;;3.95;2.10;;;23.80;80.40;;;;;;6152107;23;20156;-68
2022/07/19 07:26:54;;;;;;;1.63;1.52;;;24.00;79.30;;;;;;6153629;23;20141;-68
2022/07/19 07:29:20;;;;;;;5.30;2.25;;;24.10;80.20;;;;;;6153551;23;20160;-68
2022/07/19 07:31:45;;;;;;;3.97;2.17;;;24.20;79.40;;;;;;6153803;23;20518;-68
2022/07/19 07:34:11;;;;;;;5.18;1.73;;;24.30;77.90;;;;;;6153493;23;20640;-68
2022/07/19 07:36:37;;;;;;;10.85;2.67;;;24.40;77.80;;;;;;6153980;23;20160;-67
2022/07/19 07:39:03;;;;;;;2.10;2.00;;;24.50;77.20;;;;;;6153564;23;20153;-67
2022/07/19 07:41:28;;;;;;;4.20;1.95;;;24.70;77.50;;;;;;6127253;23;20173;-67
2022/07/19 07:43:54;;;;;;;3.47;1.98;;;24.70;77.30;;;;;;6153183;23;20153;-69
2022/07/19 07:46:20;;;;;;;3.33;1.90;;;24.90;76.70;;;;;;6153364;23;20157;-69
2022/07/19 07:48:45;;;;;;;3.92;1.92;;;25.00;75.70;;;;;;6153590;23;20149;-69
2022/07/19 07:51:11;;;;;;;6.70;2.03;;;25.10;75.80;;;;;;6153394;23;20173;-69
2022/07/19 07:53:37;;;;;;;10.35;2.15;;;25.20;74.30;;;;;;6153668;23;20180;-70
2022/07/19 07:56:03;;;;;;;4.93;1.80;;;25.30;73.30;;;;;;6153927;23;20153;-69
2022/07/19 07:58:28;;;;;;;1.85;1.65;;;25.40;73.80;;;;;;6152565;23;20193;-70
2022/07/19 08:00:54;;;;;;;3.67;2.03;;;25.40;73.60;;;;;;6153165;23;20502;-72
2022/07/19 08:03:19;;;;;;;2.47;1.80;;;25.50;72.50;;;;;;6153755;23;20527;-71
2022/07/19 08:05:47;;;;;;;1.88;1.75;;;25.60;72.80;;;;;;6153087;23;20200;-68
2022/07/19 08:08:16;;;;;;;5.20;2.17;;;25.70;71.10;;;;;;6153026;23;20498;-68
2022/07/19 08:10:42;;;;;;;2.65;2.00;;;25.80;70.10;;;;;;6153133;23;20134;-68
2022/07/19 08:13:08;;;;;;;3.95;1.50;;;25.90;69.40;;;;;;6153695;23;20260;-68
2022/07/19 08:15:36;;;;;;;2.35;1.60;;;25.90;68.40;;;;;;6156962;23;20196;-68
2022/07/19 08:18:02;;;;;;;2.58;1.70;;;25.90;69.00;;;;;;6158267;23;20150;-69
2022/07/19 08:20:27;;;;;;;3.83;1.65;;;26.00;69.20;;;;;;6156982;23;20150;-69
2022/07/19 08:22:53;;;;;;;3.83;2.03;;;26.10;69.10;;;;;;6156117;23;20630;-69
2022/07/19 08:25:19;;;;;;;7.72;1.98;;;26.30;67.60;;;;;;6155848;23;20160;-68
2022/07/19 08:27:44;;;;;;;2.90;1.80;;;26.40;69.30;;;;;;6155959;23;20575;-68
2022/07/19 08:30:11;;;;;;;3.42;1.85;;;26.60;67.60;;;;;;6155235;23;20223;-68
2022/07/19 08:32:40;;;;;;;2.83;1.63;;;26.70;66.70;;;;;;6155067;23;20527;-68
2022/07/19 08:35:07;;;;;;;4.05;1.88;;;26.80;66.80;;;;;;6154531;23;20149;-69
2022/07/19 08:37:33;;;;;;;3.95;1.70;;;26.90;66.60;;;;;;6155529;23;20149;-70
2022/07/19 08:39:59;;;;;;;2.70;1.70;;;27.00;66.10;;;;;;6155240;23;20595;-67
2022/07/19 08:42:25;;;;;;;2.58;1.73;;;27.10;65.40;;;;;;6156088;23;20250;-66
2022/07/19 08:44:53;;;;;;;5.38;1.73;;;27.20;66.40;;;;;;6155600;23;20504;-68
2022/07/19 08:47:21;;;;;;;3.35;2.08;;;27.30;64.00;;;;;;6155691;23;20157;-69
2022/07/19 08:49:47;;;;;;;1.95;1.83;;;27.30;65.00;;;;;;6129350;23;20220;-70
2022/07/19 08:52:13;;;;;;;1.77;1.67;;;27.40;64.20;;;;;;6154523;23;20193;-69
2022/07/19 08:54:39;;;;;;;3.47;1.77;;;27.40;64.80;;;;;;6129835;23;20642;-69
2022/07/19 08:59:50;;;;;;;4.38;2.15;;;27.60;64.30;;;;;;6154618;23;20141;-68
2022/07/19 09:02:16;;;;;;;3.22;1.70;;;27.80;63.60;;;;;;6153897;23;20503;-67
2022/07/19 09:04:42;;;;;;;3.90;1.75;;;27.80;65.90;;;;;;6155122;23;20145;-68
2022/07/19 09:07:07;;;;;;;2.97;2.03;;;28.00;64.60;;;;;;6155742;23;20489;-71
2022/07/19 09:09:36;;;;;;;2.33;1.80;;;28.10;63.20;;;;;;6154637;23;20145;-70
2022/07/19 09:12:04;;;;;;;2.40;1.50;;;28.10;63.50;;;;;;6155039;23;20172;-69
2022/07/19 09:14:33;;;;;;;5.20;2.17;;;28.30;63.00;;;;;;6154956;23;20599;-66
2022/07/19 09:17:06;;;;;;;7.35;2.20;;;28.40;62.60;;;;;;6154262;23;20159;-66
2022/07/19 09:19:36;;;;;;;3.63;1.92;;;28.70;63.20;;;;;;6154699;23;20177;-66
2022/07/19 09:22:05;;;;;;;3.72;1.73;;;28.90;60.90;;;;;;6155032;23;20493;-66
2022/07/19 09:24:37;;;;;;;1.63;1.55;;;29.00;60.70;;;;;;6155866;23;20481;-67
2022/07/19 09:27:18;;;;;;;3.35;1.42;;;29.20;58.90;;;;;;6129215;23;20144;-67
2022/07/19 09:29:48;;;;;;;3.60;1.30;;;29.40;57.20;;;;;;6155707;23;20137;-67
2022/07/19 09:32:19;;;;;;;2.13;1.55;;;29.60;57.30;;;;;;6156381;23;20169;-67
2022/07/19 09:34:53;;;;;;;2.40;1.90;;;29.80;57.00;;;;;;6155488;23;20144;-66
2022/07/19 09:37:25;;;;;;;1.98;1.60;;;30.20;57.00;;;;;;6154875;23;20223;-66
2022/07/19 09:39:54;;;;;;;2.78;1.40;;;31.10;55.20;;;;;;6154342;23;20153;-66
2022/07/19 09:42:25;;;;;;;2.88;1.50;;;33.20;52.00;;;;;;6154389;23;20248;-66
2022/07/19 09:44:58;;;;;;;1.42;1.35;;;35.70;48.10;;;;;;6154899;23;20153;-65
2022/07/19 09:47:38;;;;;;;2.38;1.70;;;37.50;44.70;;;;;;6154777;23;20188;-65
2022/07/19 09:50:07;;;;;;;1.40;1.30;;;38.80;41.70;;;;;;6128352;23;20153;-65
2022/07/19 09:52:36;;;;;;;1.52;1.42;;;39.70;40.20;;;;;;6153989;23;20189;-67
2022/07/19 09:55:04;;;;;;;5.30;1.48;;;41.00;39.10;;;;;;6155267;23;20203;-67
2022/07/19 09:57:34;;;;;;;3.45;1.48;;;41.80;36.80;;;;;;6154466;23;20161;-67
2022/07/19 10:00:02;;;;;;;5.47;1.50;;;42.50;36.30;;;;;;6153955;23;20180;-66
2022/07/19 10:02:33;;;;;;;1.63;1.50;;;43.30;35.30;;;;;;6154775;23;20184;-67
2022/07/19 10:04:59;;;;;;;1.25;1.25;;;43.70;34.30;;;;;;6155283;23;20196;-67
2022/07/19 10:07:26;;;;;;;1.67;1.40;;;44.20;33.00;;;;;;6154056;23;20199;-67
2022/07/19 10:09:52;;;;;;;3.00;1.40;;;44.90;32.60;;;;;;6153729;23;20199;-66
2022/07/19 10:12:18;;;;;;;1.48;1.40;;;45.20;32.50;;;;;;6153777;23;20212;-66
2022/07/19 10:14:43;;;;;;;1.30;1.27;;;45.40;32.00;;;;;;6154025;23;20156;-66
2022/07/19 10:17:21;;;;;;;1.60;1.48;;;45.50;31.80;;;;;;6154141;23;20148;-66
2022/07/19 10:19:48;;;;;;;4.07;1.67;;;45.90;32.20;;;;;;6154111;23;20152;-66
2022/07/19 10:22:17;;;;;;;1.38;1.27;;;46.20;31.60;;;;;;6153933;23;20244;-67
2022/07/19 10:24:43;;;;;;;2.13;1.70;;;46.70;30.40;;;;;;6153972;23;20606;-67
2022/07/19 10:27:10;;;;;;;2.42;1.80;;;47.00;30.40;;;;;;6153969;23;20145;-66
2022/07/19 10:29:35;;;;;;;1.77;1.60;;;47.10;30.60;;;;;;6154020;23;20599;-66
2022/07/19 10:32:06;;;;;;;1.77;1.67;;;47.30;29.40;;;;;;6153652;23;20170;-66
2022/07/19 10:34:32;;;;;;;1.30;1.30;;;47.30;28.90;;;;;;6153415;23;20551;-70
2022/07/19 10:36:57;;;;;;;2.17;1.33;;;47.30;29.10;;;;;;6153700;23;20145;-70
2022/07/19 10:39:31;;;;;;;1.85;1.38;;;47.20;28.80;;;;;;6153411;23;20600;-74
2022/07/19 10:42:19;;;;;;;1.98;1.48;;;47.20;28.60;;;;;;6153394;23;20760;-70
2022/07/19 10:44:57;;;;;;;1.70;1.60;;;46.40;29.30;;;;;;6154028;23;20150;-71
2022/07/19 10:47:45;;;;;;;2.05;1.58;;;46.40;29.20;;;;;;6153758;23;20148;-70
2022/07/19 10:50:21;;;;;;;2.22;1.38;;;46.70;29.40;;;;;;6153477;23;20183;-70
2022/07/19 10:52:47;;;;;;;2.25;1.50;;;47.10;29.00;;;;;;6153279;23;20180;-73
2022/07/19 10:55:16;;;;;;;3.05;1.63;;;47.20;28.40;;;;;;6127845;23;20164;-71
2022/07/19 10:57:48;;;;;;;2.17;1.60;;;47.10;29.00;;;;;;6154044;23;20172;-69
2022/07/19 11:00:20;;;;;;;2.38;1.60;;;47.90;28.50;;;;;;6153380;23;20446;-69
2022/07/19 11:02:47;;;;;;;1.35;1.27;;;47.90;28.60;;;;;;6153972;23;20713;-68
2022/07/19 11:05:26;;;;;;;2.50;1.60;;;47.90;28.40;;;;;;6154999;23;20633;-68
2022/07/19 11:07:53;;;;;;;1.85;1.60;;;47.90;28.00;;;;;;6153633;23;20231;-68
2022/07/19 11:10:29;;;;;;;1.92;1.80;;;48.10;28.10;;;;;;6153278;23;20177;-68
2022/07/19 11:12:58;;;;;;;2.55;1.70;;;47.80;28.10;;;;;;6153764;23;20364;-70
2022/07/19 11:15:27;;;;;;;1.30;1.30;;;47.90;27.90;;;;;;6154050;23;20149;-70
2022/07/19 11:18:02;;;;;;;3.88;1.80;;;48.40;27.70;;;;;;6153551;23;20224;-70
2022/07/19 11:20:30;;;;;;;1.88;1.77;;;47.90;28.40;;;;;;6153323;23;20597;-69
2022/07/19 11:22:57;;;;;;;1.95;1.85;;;46.90;28.30;;;;;;6153405;23;20255;-68
2022/07/19 11:25:35;;;;;;;3.63;1.90;;;47.20;28.30;;;;;;6153063;23;20152;-70
2022/07/19 11:28:01;;;;;;;3.08;1.73;;;47.80;27.60;;;;;;6153663;23;20165;-69
2022/07/19 11:30:29;;;;;;;2.28;1.75;;;47.10;28.40;;;;;;6153920;23;20155;-70
2022/07/19 11:33:06;;;;;;;1.85;1.75;;;47.10;28.20;;;;;;6153709;23;20208;-70
2022/07/19 11:35:32;;;;;;;1.75;1.67;;;46.90;28.60;;;;;;6153417;23;20533;-68
2022/07/19 11:37:59;;;;;;;4.88;1.83;;;47.70;28.30;;;;;;6127269;23;20149;-69
2022/07/19 11:40:32;;;;;;;1.75;1.65;;;47.90;27.80;;;;;;6152711;23;20265;-70
2022/07/19 11:42:57;;;;;;;2.60;1.88;;;48.00;28.00;;;;;;6153448;23;20175;-69
2022/07/19 11:45:24;;;;;;;1.90;1.80;;;47.70;28.20;;;;;;6153869;23;20152;-69
2022/07/19 11:47:55;;;;;;;2.17;1.92;;;47.30;28.90;;;;;;6153966;23;20156;-70
2022/07/19 11:50:23;;;;;;;1.73;1.63;;;46.90;28.80;;;;;;6152390;23;20145;-68
2022/07/19 11:52:52;;;;;;;2.25;1.90;;;46.10;28.90;;;;;;6155143;23;20663;-69
2022/07/19 11:55:26;;;;;;;2.45;1.77;;;46.00;29.30;;;;;;6155040;23;20156;-68
2022/07/19 11:57:53;;;;;;;3.55;1.60;;;46.40;28.90;;;;;;6154824;23;20165;-68
2022/07/19 12:00:19;;;;;;;4.60;1.70;;;46.20;28.70;;;;;;6155633;23;20153;-69
2022/07/19 12:03:04;;;;;;;3.55;1.58;;;46.20;28.90;;;;;;6155603;23;20178;-68
2022/07/19 12:05:52;;;;;;;2.05;1.95;;;46.10;28.80;;;;;;6156268;23;20149;-70
2022/07/19 12:08:18;;;;;;;1.77;1.67;;;46.20;28.80;;;;;;6155298;23;20138;-68
2022/07/19 12:10:47;;;;;;;1.67;1.58;;;46.40;28.10;;;;;;6155670;23;20219;-67
2022/07/19 12:13:26;;;;;;;3.28;1.75;;;45.80;28.50;;;;;;6153920;23;20641;-69
2022/07/19 12:15:55;;;;;;;3.03;1.85;;;46.10;28.00;;;;;;6155111;23;20161;-69
2022/07/19 12:18:33;;;;;;;2.05;1.95;;;45.70;28.60;;;;;;6153959;23;20493;-70
2022/07/19 12:21:17;;;;;;;3.28;1.50;;;45.60;28.40;;;;;;6154978;23;20318;-70
2022/07/19 12:24:03;;;;;;;2.47;1.50;;;45.30;28.40;;;;;;6154019;23;20156;-70
2022/07/19 12:26:28;;;;;;;3.35;1.80;;;45.30;28.90;;;;;;6153794;23;20164;-70
2022/07/19 12:28:54;;;;;;;2.00;1.80;;;45.90;28.30;;;;;;6154356;23;20157;-70
2022/07/19 12:31:19;;;;;;;1.67;1.58;;;45.70;28.20;;;;;;6154620;23;20243;-69
2022/07/19 12:33:45;;;;;;;2.80;1.60;;;45.70;28.60;;;;;;6154332;23;20260;-69
2022/07/19 12:36:34;;;;;;;2.80;1.40;;;45.60;28.80;;;;;;6155268;23;20492;-70
2022/07/19 12:39:00;;;;;;;3.35;1.50;;;45.90;28.30;;;;;;6129044;23;20151;-71
2022/07/19 12:41:25;;;;;;;1.75;1.65;;;45.50;28.20;;;;;;6155403;23;20692;-72
2022/07/19 12:43:51;;;;;;;1.67;1.40;;;45.40;28.20;;;;;;6155646;23;20488;-72
2022/07/19 12:46:16;;;;;;;1.55;1.45;;;45.60;27.90;;;;;;6155627;23;20596;-73
2022/07/19 12:48:42;;;;;;;1.50;1.40;;;45.60;28.20;;;;;;6155260;23;20491;-72